In Rescue
 
Open Full Screen Window  High Contrast Mode
Wind Gusting 00 knots
04
November 14, 2019 1:53 PM EST
Weather Information
Wind Direction
  220 °
Wind Speed
  04 kt (5 mph)
Wind Gust
  00 kt (0 mph)
Altimeter
30.04 in
Visibility
10 SM
Temperature
-01° C
30° F
Dewpoint
-04° C
25° F
Humidity
80%
Sky Condition
Overcast @ 2,900 ft
MVFR

METAR KSLH 141853Z AUTO 22004KT 10SM OVC029 M01/M04 A3004 RMK AO2 T10131041

FAA Disclaimer: The data displayed is for advisory purposes only and is not to be used for flight planning or operations.